sensor_id;sensor_type;location;lat;lon;timestamp;P1;durP1;ratioP1;P2;durP2;ratioP2
62997;SDS011;55949;52.590;7.330;2022-08-03T00:00:23;1.63;;;1.20;;
62997;SDS011;55949;52.590;7.330;2022-08-03T00:01:25;3.08;;;1.55;;
62997;SDS011;55949;52.590;7.330;2022-08-03T00:02:27;2.97;;;2.30;;
62997;SDS011;55949;52.590;7.330;2022-08-03T00:03:27;4.35;;;1.52;;
62997;SDS011;55949;52.590;7.330;2022-08-03T00:04:28;2.20;;;1.50;;
62997;SDS011;55949;52.590;7.330;2022-08-03T00:05:29;2.20;;;1.45;;
62997;SDS011;55949;52.590;7.330;2022-08-03T00:06:32;2.85;;;1.55;;
62997;SDS011;55949;52.590;7.330;2022-08-03T00:07:33;3.47;;;1.73;;
62997;SDS011;55949;52.590;7.330;2022-08-03T00:08:34;2.38;;;1.92;;
62997;SDS011;55949;52.590;7.330;2022-08-03T00:09:35;2.80;;;1.65;;
62997;SDS011;55949;52.590;7.330;2022-08-03T00:10:36;3.47;;;2.00;;
62997;SDS011;55949;52.590;7.330;2022-08-03T00:11:37;3.05;;;2.20;;
62997;SDS011;55949;52.590;7.330;2022-08-03T00:12:38;4.30;;;2.50;;
62997;SDS011;55949;52.590;7.330;2022-08-03T00:13:39;4.13;;;2.20;;
62997;SDS011;55949;52.590;7.330;2022-08-03T00:14:39;3.63;;;2.13;;
62997;SDS011;55949;52.590;7.330;2022-08-03T00:15:41;3.95;;;2.05;;
62997;SDS011;55949;52.590;7.330;2022-08-03T00:16:42;2.50;;;1.90;;
62997;SDS011;55949;52.590;7.330;2022-08-03T00:17:43;5.88;;;2.20;;
62997;SDS011;55949;52.590;7.330;2022-08-03T00:18:44;3.00;;;2.10;;
62997;SDS011;55949;52.590;7.330;2022-08-03T00:19:45;3.00;;;1.40;;
62997;SDS011;55949;52.590;7.330;2022-08-03T00:20:46;3.00;;;1.77;;
62997;SDS011;55949;52.590;7.330;2022-08-03T00:21:46;3.00;;;1.95;;
62997;SDS011;55949;52.590;7.330;2022-08-03T00:22:47;3.25;;;1.55;;
62997;SDS011;55949;52.590;7.330;2022-08-03T00:23:48;2.90;;;1.80;;
62997;SDS011;55949;52.590;7.330;2022-08-03T00:24:49;4.07;;;1.70;;
62997;SDS011;55949;52.590;7.330;2022-08-03T00:25:50;2.05;;;1.50;;
62997;SDS011;55949;52.590;7.330;2022-08-03T00:26:51;3.08;;;1.70;;
62997;SDS011;55949;52.590;7.330;2022-08-03T00:27:51;3.33;;;1.83;;
62997;SDS011;55949;52.590;7.330;2022-08-03T00:28:52;2.95;;;2.00;;
62997;SDS011;55949;52.590;7.330;2022-08-03T00:29:53;3.50;;;1.88;;
62997;SDS011;55949;52.590;7.330;2022-08-03T00:30:54;5.40;;;2.20;;
62997;SDS011;55949;52.590;7.330;2022-08-03T00:31:55;3.45;;;1.67;;
62997;SDS011;55949;52.590;7.330;2022-08-03T00:32:55;3.25;;;1.85;;
62997;SDS011;55949;52.590;7.330;2022-08-03T00:33:56;3.80;;;1.85;;
62997;SDS011;55949;52.590;7.330;2022-08-03T00:34:57;2.63;;;1.80;;
62997;SDS011;55949;52.590;7.330;2022-08-03T00:35:58;2.83;;;1.42;;
62997;SDS011;55949;52.590;7.330;2022-08-03T00:36:58;3.13;;;1.40;;
62997;SDS011;55949;52.590;7.330;2022-08-03T00:37:59;2.83;;;1.70;;
62997;SDS011;55949;52.590;7.330;2022-08-03T00:39:00;2.90;;;1.70;;
62997;SDS011;55949;52.590;7.330;2022-08-03T00:40:00;2.65;;;1.60;;
62997;SDS011;55949;52.590;7.330;2022-08-03T00:41:01;2.55;;;1.40;;
62997;SDS011;55949;52.590;7.330;2022-08-03T00:42:03;1.67;;;1.23;;
62997;SDS011;55949;52.590;7.330;2022-08-03T00:43:05;1.60;;;1.35;;
62997;SDS011;55949;52.590;7.330;2022-08-03T00:44:07;2.08;;;1.20;;
62997;SDS011;55949;52.590;7.330;2022-08-03T00:45:08;1.35;;;1.10;;
62997;SDS011;55949;52.590;7.330;2022-08-03T00:46:09;2.38;;;1.10;;
62997;SDS011;55949;52.590;7.330;2022-08-03T00:47:10;2.67;;;1.60;;
62997;SDS011;55949;52.590;7.330;2022-08-03T00:48:11;1.77;;;1.40;;
62997;SDS011;55949;52.590;7.330;2022-08-03T00:49:12;2.60;;;1.38;;
62997;SDS011;55949;52.590;7.330;2022-08-03T00:50:13;3.72;;;1.40;;
62997;SDS011;55949;52.590;7.330;2022-08-03T00:51:14;2.47;;;1.50;;
62997;SDS011;55949;52.590;7.330;2022-08-03T00:52:15;3.75;;;1.63;;
62997;SDS011;55949;52.590;7.330;2022-08-03T00:53:16;4.28;;;1.88;;
62997;SDS011;55949;52.590;7.330;2022-08-03T00:54:17;2.63;;;1.70;;
62997;SDS011;55949;52.590;7.330;2022-08-03T00:55:19;4.53;;;2.05;;
62997;SDS011;55949;52.590;7.330;2022-08-03T00:56:20;1.90;;;1.40;;
62997;SDS011;55949;52.590;7.330;2022-08-03T00:57:20;2.22;;;1.73;;
62997;SDS011;55949;52.590;7.330;2022-08-03T00:58:21;2.42;;;1.80;;
62997;SDS011;55949;52.590;7.330;2022-08-03T00:59:23;2.30;;;1.50;;
62997;SDS011;55949;52.590;7.330;2022-08-03T01:00:25;3.00;;;1.30;;
62997;SDS011;55949;52.590;7.330;2022-08-03T01:01:26;2.35;;;1.52;;
62997;SDS011;55949;52.590;7.330;2022-08-03T01:02:28;2.40;;;1.77;;
62997;SDS011;55949;52.590;7.330;2022-08-03T01:03:29;2.60;;;1.48;;
62997;SDS011;55949;52.590;7.330;2022-08-03T01:04:30;3.20;;;1.63;;
62997;SDS011;55949;52.590;7.330;2022-08-03T01:05:34;2.53;;;1.60;;
62997;SDS011;55949;52.590;7.330;2022-08-03T01:09:40;1.63;;;1.48;;
62997;SDS011;55949;52.590;7.330;2022-08-03T01:13:34;3.67;;;2.13;;
62997;SDS011;55949;52.590;7.330;2022-08-03T01:16:08;3.83;;;1.80;;
62997;SDS011;55949;52.590;7.330;2022-08-03T01:20:44;2.92;;;1.75;;
62997;SDS011;55949;52.590;7.330;2022-08-03T01:25:33;3.78;;;1.60;;
62997;SDS011;55949;52.590;7.330;2022-08-03T01:30:42;2.10;;;1.63;;
62997;SDS011;55949;52.590;7.330;2022-08-03T01:31:51;4.00;;;1.95;;
62997;SDS011;55949;52.590;7.330;2022-08-03T01:32:59;1.75;;;1.40;;
62997;SDS011;55949;52.590;7.330;2022-08-03T01:34:04;2.03;;;1.50;;
62997;SDS011;55949;52.590;7.330;2022-08-03T01:35:08;2.28;;;1.70;;
62997;SDS011;55949;52.590;7.330;2022-08-03T01:36:18;2.63;;;1.52;;
62997;SDS011;55949;52.590;7.330;2022-08-03T01:37:23;4.50;;;1.67;;
62997;SDS011;55949;52.590;7.330;2022-08-03T01:38:31;2.05;;;1.58;;
62997;SDS011;55949;52.590;7.330;2022-08-03T01:39:37;3.20;;;1.73;;
62997;SDS011;55949;52.590;7.330;2022-08-03T01:40:40;6.80;;;1.80;;
62997;SDS011;55949;52.590;7.330;2022-08-03T01:41:46;2.95;;;1.52;;
62997;SDS011;55949;52.590;7.330;2022-08-03T01:42:53;3.35;;;1.83;;
62997;SDS011;55949;52.590;7.330;2022-08-03T01:43:56;2.28;;;1.88;;
62997;SDS011;55949;52.590;7.330;2022-08-03T01:45:00;4.35;;;2.13;;
62997;SDS011;55949;52.590;7.330;2022-08-03T01:46:02;3.20;;;1.48;;
62997;SDS011;55949;52.590;7.330;2022-08-03T01:47:04;3.22;;;1.48;;
62997;SDS011;55949;52.590;7.330;2022-08-03T01:48:06;3.08;;;1.77;;
62997;SDS011;55949;52.590;7.330;2022-08-03T01:49:10;4.35;;;2.10;;
62997;SDS011;55949;52.590;7.330;2022-08-03T01:50:12;1.58;;;1.13;;
62997;SDS011;55949;52.590;7.330;2022-08-03T01:51:15;2.55;;;1.60;;
62997;SDS011;55949;52.590;7.330;2022-08-03T01:52:18;3.10;;;1.80;;
62997;SDS011;55949;52.590;7.330;2022-08-03T01:53:20;2.80;;;2.00;;
62997;SDS011;55949;52.590;7.330;2022-08-03T01:54:22;4.60;;;2.33;;
62997;SDS011;55949;52.590;7.330;2022-08-03T01:55:24;3.55;;;2.03;;
62997;SDS011;55949;52.590;7.330;2022-08-03T01:56:30;4.90;;;2.20;;
62997;SDS011;55949;52.590;7.330;2022-08-03T01:57:32;4.68;;;2.35;;
62997;SDS011;55949;52.590;7.330;2022-08-03T01:58:36;3.22;;;1.90;;
62997;SDS011;55949;52.590;7.330;2022-08-03T01:59:38;4.05;;;2.38;;
62997;SDS011;55949;52.590;7.330;2022-08-03T02:00:40;3.53;;;2.10;;
62997;SDS011;55949;52.590;7.330;2022-08-03T02:01:42;4.43;;;2.50;;
62997;SDS011;55949;52.590;7.330;2022-08-03T02:02:46;3.63;;;2.15;;
62997;SDS011;55949;52.590;7.330;2022-08-03T02:03:48;5.05;;;2.08;;
62997;SDS011;55949;52.590;7.330;2022-08-03T02:04:51;4.28;;;2.22;;
62997;SDS011;55949;52.590;7.330;2022-08-03T02:05:55;6.57;;;2.38;;
62997;SDS011;55949;52.590;7.330;2022-08-03T02:06:58;3.75;;;1.83;;
62997;SDS011;55949;52.590;7.330;2022-08-03T02:08:00;3.75;;;2.08;;
62997;SDS011;55949;52.590;7.330;2022-08-03T02:09:04;3.97;;;2.40;;
62997;SDS011;55949;52.590;7.330;2022-08-03T02:10:06;4.22;;;2.60;;
62997;SDS011;55949;52.590;7.330;2022-08-03T02:11:10;3.60;;;2.20;;
62997;SDS011;55949;52.590;7.330;2022-08-03T02:12:12;4.18;;;2.10;;
62997;SDS011;55949;52.590;7.330;2022-08-03T02:13:14;4.28;;;2.15;;
62997;SDS011;55949;52.590;7.330;2022-08-03T02:14:18;5.57;;;2.20;;
62997;SDS011;55949;52.590;7.330;2022-08-03T02:15:19;4.03;;;2.30;;
62997;SDS011;55949;52.590;7.330;2022-08-03T02:16:22;5.22;;;2.30;;
62997;SDS011;55949;52.590;7.330;2022-08-03T02:17:24;5.28;;;2.25;;
62997;SDS011;55949;52.590;7.330;2022-08-03T02:18:26;5.40;;;2.80;;
62997;SDS011;55949;52.590;7.330;2022-08-03T02:19:29;4.28;;;2.10;;
62997;SDS011;55949;52.590;7.330;2022-08-03T02:20:31;3.90;;;2.83;;
62997;SDS011;55949;52.590;7.330;2022-08-03T02:21:35;5.35;;;2.50;;
62997;SDS011;55949;52.590;7.330;2022-08-03T02:22:40;4.00;;;2.97;;
62997;SDS011;55949;52.590;7.330;2022-08-03T02:23:42;4.15;;;2.70;;
62997;SDS011;55949;52.590;7.330;2022-08-03T02:24:43;4.72;;;2.67;;
62997;SDS011;55949;52.590;7.330;2022-08-03T02:25:45;7.22;;;3.05;;
62997;SDS011;55949;52.590;7.330;2022-08-03T02:27:01;4.45;;;2.97;;
62997;SDS011;55949;52.590;7.330;2022-08-03T02:28:10;7.03;;;3.80;;
62997;SDS011;55949;52.590;7.330;2022-08-03T02:29:17;4.13;;;2.80;;
62997;SDS011;55949;52.590;7.330;2022-08-03T02:30:21;4.15;;;2.78;;
62997;SDS011;55949;52.590;7.330;2022-08-03T02:31:33;6.50;;;2.80;;
62997;SDS011;55949;52.590;7.330;2022-08-03T02:32:36;4.50;;;2.67;;
62997;SDS011;55949;52.590;7.330;2022-08-03T02:33:43;6.35;;;3.42;;
62997;SDS011;55949;52.590;7.330;2022-08-03T02:34:50;3.33;;;2.20;;
62997;SDS011;55949;52.590;7.330;2022-08-03T02:35:52;3.53;;;2.50;;
62997;SDS011;55949;52.590;7.330;2022-08-03T02:36:54;4.05;;;2.60;;
62997;SDS011;55949;52.590;7.330;2022-08-03T02:38:00;5.07;;;2.17;;
62997;SDS011;55949;52.590;7.330;2022-08-03T02:39:02;5.07;;;2.33;;
62997;SDS011;55949;52.590;7.330;2022-08-03T02:40:04;3.47;;;2.50;;
62997;SDS011;55949;52.590;7.330;2022-08-03T02:41:12;3.90;;;2.33;;
62997;SDS011;55949;52.590;7.330;2022-08-03T02:42:17;3.97;;;2.40;;
62997;SDS011;55949;52.590;7.330;2022-08-03T02:43:22;3.38;;;2.60;;
62997;SDS011;55949;52.590;7.330;2022-08-03T02:44:24;4.32;;;2.60;;
62997;SDS011;55949;52.590;7.330;2022-08-03T02:45:26;4.82;;;2.30;;
62997;SDS011;55949;52.590;7.330;2022-08-03T02:46:32;3.22;;;2.22;;
62997;SDS011;55949;52.590;7.330;2022-08-03T02:47:37;3.80;;;2.55;;
62997;SDS011;55949;52.590;7.330;2022-08-03T02:48:40;5.68;;;2.30;;
62997;SDS011;55949;52.590;7.330;2022-08-03T02:49:42;3.58;;;2.47;;
62997;SDS011;55949;52.590;7.330;2022-08-03T02:50:46;4.50;;;2.55;;
62997;SDS011;55949;52.590;7.330;2022-08-03T02:51:48;3.83;;;2.60;;
62997;SDS011;55949;52.590;7.330;2022-08-03T02:52:52;5.10;;;2.60;;
62997;SDS011;55949;52.590;7.330;2022-08-03T02:53:54;4.55;;;2.40;;
62997;SDS011;55949;52.590;7.330;2022-08-03T02:54:58;3.15;;;1.98;;
62997;SDS011;55949;52.590;7.330;2022-08-03T02:56:02;3.30;;;2.25;;
62997;SDS011;55949;52.590;7.330;2022-08-03T02:57:05;4.15;;;2.55;;
62997;SDS011;55949;52.590;7.330;2022-08-03T02:58:08;3.45;;;2.25;;
62997;SDS011;55949;52.590;7.330;2022-08-03T02:59:10;5.70;;;2.33;;
62997;SDS011;55949;52.590;7.330;2022-08-03T03:00:12;3.35;;;2.50;;
62997;SDS011;55949;52.590;7.330;2022-08-03T03:01:14;4.18;;;2.70;;
62997;SDS011;55949;52.590;7.330;2022-08-03T03:02:18;5.10;;;2.67;;
62997;SDS011;55949;52.590;7.330;2022-08-03T03:03:20;3.15;;;2.15;;
62997;SDS011;55949;52.590;7.330;2022-08-03T03:04:21;6.35;;;2.88;;
62997;SDS011;55949;52.590;7.330;2022-08-03T03:05:22;5.28;;;2.92;;
62997;SDS011;55949;52.590;7.330;2022-08-03T03:06:24;4.47;;;3.10;;
62997;SDS011;55949;52.590;7.330;2022-08-03T03:07:26;6.60;;;3.22;;
62997;SDS011;55949;52.590;7.330;2022-08-03T03:08:27;7.47;;;2.67;;
62997;SDS011;55949;52.590;7.330;2022-08-03T03:09:30;3.97;;;2.80;;
62997;SDS011;55949;52.590;7.330;2022-08-03T03:10:32;5.68;;;2.72;;
62997;SDS011;55949;52.590;7.330;2022-08-03T03:11:33;3.30;;;2.70;;
62997;SDS011;55949;52.590;7.330;2022-08-03T03:12:37;3.10;;;2.53;;
62997;SDS011;55949;52.590;7.330;2022-08-03T03:13:42;4.40;;;3.13;;
62997;SDS011;55949;52.590;7.330;2022-08-03T03:14:45;4.60;;;2.40;;
62997;SDS011;55949;52.590;7.330;2022-08-03T03:15:46;5.70;;;2.72;;
62997;SDS011;55949;52.590;7.330;2022-08-03T03:16:47;3.47;;;2.50;;
62997;SDS011;55949;52.590;7.330;2022-08-03T03:17:48;7.40;;;3.15;;
62997;SDS011;55949;52.590;7.330;2022-08-03T03:18:51;9.07;;;3.33;;
62997;SDS011;55949;52.590;7.330;2022-08-03T03:19:53;3.95;;;2.83;;
62997;SDS011;55949;52.590;7.330;2022-08-03T03:20:55;5.70;;;2.80;;
62997;SDS011;55949;52.590;7.330;2022-08-03T03:22:01;3.90;;;2.50;;
62997;SDS011;55949;52.590;7.330;2022-08-03T03:23:03;5.25;;;2.85;;
62997;SDS011;55949;52.590;7.330;2022-08-03T03:24:05;6.60;;;3.17;;
62997;SDS011;55949;52.590;7.330;2022-08-03T03:25:07;5.72;;;3.35;;
62997;SDS011;55949;52.590;7.330;2022-08-03T03:26:08;4.43;;;2.78;;
62997;SDS011;55949;52.590;7.330;2022-08-03T03:27:08;5.72;;;3.40;;
62997;SDS011;55949;52.590;7.330;2022-08-03T03:28:09;8.10;;;3.58;;
62997;SDS011;55949;52.590;7.330;2022-08-03T03:29:10;6.85;;;3.35;;
62997;SDS011;55949;52.590;7.330;2022-08-03T03:30:11;4.90;;;2.88;;
62997;SDS011;55949;52.590;7.330;2022-08-03T03:31:12;4.90;;;3.13;;
62997;SDS011;55949;52.590;7.330;2022-08-03T03:32:13;4.35;;;3.10;;
62997;SDS011;55949;52.590;7.330;2022-08-03T03:33:14;5.35;;;3.08;;
62997;SDS011;55949;52.590;7.330;2022-08-03T03:34:15;6.65;;;3.10;;
62997;SDS011;55949;52.590;7.330;2022-08-03T03:35:17;9.45;;;3.67;;
62997;SDS011;55949;52.590;7.330;2022-08-03T03:36:18;5.53;;;2.90;;
62997;SDS011;55949;52.590;7.330;2022-08-03T03:37:19;5.80;;;2.83;;
62997;SDS011;55949;52.590;7.330;2022-08-03T03:38:19;5.55;;;3.15;;
62997;SDS011;55949;52.590;7.330;2022-08-03T03:39:20;4.63;;;3.17;;
62997;SDS011;55949;52.590;7.330;2022-08-03T03:40:21;4.88;;;3.20;;
62997;SDS011;55949;52.590;7.330;2022-08-03T03:41:22;8.20;;;3.40;;
62997;SDS011;55949;52.590;7.330;2022-08-03T03:42:24;11.15;;;3.75;;
62997;SDS011;55949;52.590;7.330;2022-08-03T03:43:25;4.95;;;2.90;;
62997;SDS011;55949;52.590;7.330;2022-08-03T03:44:28;4.03;;;2.90;;
62997;SDS011;55949;52.590;7.330;2022-08-03T03:45:30;7.00;;;3.60;;
62997;SDS011;55949;52.590;7.330;2022-08-03T03:46:33;5.25;;;3.47;;
62997;SDS011;55949;52.590;7.330;2022-08-03T03:47:34;5.82;;;3.25;;
62997;SDS011;55949;52.590;7.330;2022-08-03T03:48:35;5.95;;;3.38;;
62997;SDS011;55949;52.590;7.330;2022-08-03T03:49:38;5.03;;;2.97;;
62997;SDS011;55949;52.590;7.330;2022-08-03T03:50:39;5.38;;;3.40;;
62997;SDS011;55949;52.590;7.330;2022-08-03T03:51:40;7.43;;;3.60;;
62997;SDS011;55949;52.590;7.330;2022-08-03T03:52:41;8.02;;;3.20;;
62997;SDS011;55949;52.590;7.330;2022-08-03T03:53:54;4.35;;;2.95;;
62997;SDS011;55949;52.590;7.330;2022-08-03T03:54:59;5.10;;;3.00;;
62997;SDS011;55949;52.590;7.330;2022-08-03T03:55:59;5.78;;;3.20;;
62997;SDS011;55949;52.590;7.330;2022-08-03T03:57:00;4.13;;;3.00;;
62997;SDS011;55949;52.590;7.330;2022-08-03T03:58:02;7.45;;;3.15;;
62997;SDS011;55949;52.590;7.330;2022-08-03T03:59:03;4.80;;;2.88;;
62997;SDS011;55949;52.590;7.330;2022-08-03T04:00:04;6.70;;;2.75;;
62997;SDS011;55949;52.590;7.330;2022-08-03T04:01:05;7.05;;;3.60;;
62997;SDS011;55949;52.590;7.330;2022-08-03T04:02:08;3.97;;;2.85;;
62997;SDS011;55949;52.590;7.330;2022-08-03T04:03:10;10.30;;;3.08;;
62997;SDS011;55949;52.590;7.330;2022-08-03T04:04:11;10.10;;;3.03;;
62997;SDS011;55949;52.590;7.330;2022-08-03T04:05:30;5.53;;;2.88;;
62997;SDS011;55949;52.590;7.330;2022-08-03T04:06:50;7.13;;;2.72;;
62997;SDS011;55949;52.590;7.330;2022-08-03T04:08:10;4.23;;;2.57;;
62997;SDS011;55949;52.590;7.330;2022-08-03T04:09:31;4.68;;;2.75;;
62997;SDS011;55949;52.590;7.330;2022-08-03T04:12:09;5.72;;;2.95;;
62997;SDS011;55949;52.590;7.330;2022-08-03T04:13:10;4.85;;;2.92;;
62997;SDS011;55949;52.590;7.330;2022-08-03T04:14:18;4.60;;;2.80;;
62997;SDS011;55949;52.590;7.330;2022-08-03T04:15:23;4.15;;;2.90;;
62997;SDS011;55949;52.590;7.330;2022-08-03T04:16:27;5.75;;;2.53;;
62997;SDS011;55949;52.590;7.330;2022-08-03T04:17:30;6.25;;;2.83;;
62997;SDS011;55949;52.590;7.330;2022-08-03T04:18:33;4.25;;;2.55;;
62997;SDS011;55949;52.590;7.330;2022-08-03T04:19:39;5.43;;;2.50;;
62997;SDS011;55949;52.590;7.330;2022-08-03T04:20:44;6.20;;;3.05;;
62997;SDS011;55949;52.590;7.330;2022-08-03T04:21:48;5.15;;;2.60;;
62997;SDS011;55949;52.590;7.330;2022-08-03T04:22:52;5.15;;;2.92;;
62997;SDS011;55949;52.590;7.330;2022-08-03T04:24:01;4.18;;;2.90;;
62997;SDS011;55949;52.590;7.330;2022-08-03T04:26:08;4.90;;;2.70;;
62997;SDS011;55949;52.590;7.330;2022-08-03T04:27:13;4.55;;;2.50;;
62997;SDS011;55949;52.590;7.330;2022-08-03T04:28:15;4.38;;;2.75;;
62997;SDS011;55949;52.590;7.330;2022-08-03T04:29:18;3.50;;;2.47;;
62997;SDS011;55949;52.590;7.330;2022-08-03T04:30:21;8.63;;;3.40;;
62997;SDS011;55949;52.590;7.330;2022-08-03T04:31:23;7.35;;;3.22;;
62997;SDS011;55949;52.590;7.330;2022-08-03T04:32:26;6.95;;;3.53;;
62997;SDS011;55949;52.590;7.330;2022-08-03T04:33:30;5.20;;;2.97;;
62997;SDS011;55949;52.590;7.330;2022-08-03T04:34:32;7.25;;;2.75;;
62997;SDS011;55949;52.590;7.330;2022-08-03T04:35:33;5.10;;;3.00;;
62997;SDS011;55949;52.590;7.330;2022-08-03T04:36:41;6.07;;;3.10;;
62997;SDS011;55949;52.590;7.330;2022-08-03T04:37:52;4.30;;;2.88;;
62997;SDS011;55949;52.590;7.330;2022-08-03T04:38:59;5.03;;;3.45;;
62997;SDS011;55949;52.590;7.330;2022-08-03T04:40:08;3.50;;;2.83;;
62997;SDS011;55949;52.590;7.330;2022-08-03T04:41:12;5.35;;;3.60;;
62997;SDS011;55949;52.590;7.330;2022-08-03T04:42:14;6.43;;;3.60;;
62997;SDS011;55949;52.590;7.330;2022-08-03T04:43:18;6.72;;;3.30;;
62997;SDS011;55949;52.590;7.330;2022-08-03T04:44:20;6.22;;;3.15;;
62997;SDS011;55949;52.590;7.330;2022-08-03T04:45:23;6.97;;;3.28;;
62997;SDS011;55949;52.590;7.330;2022-08-03T04:46:31;6.45;;;3.60;;
62997;SDS011;55949;52.590;7.330;2022-08-03T04:47:33;8.52;;;4.40;;
62997;SDS011;55949;52.590;7.330;2022-08-03T04:48:35;5.05;;;3.78;;
62997;SDS011;55949;52.590;7.330;2022-08-03T04:49:36;6.75;;;3.72;;
62997;SDS011;55949;52.590;7.330;2022-08-03T04:50:38;9.25;;;3.67;;
62997;SDS011;55949;52.590;7.330;2022-08-03T04:51:40;4.10;;;3.25;;
62997;SDS011;55949;52.590;7.330;2022-08-03T04:52:42;5.10;;;3.60;;
62997;SDS011;55949;52.590;7.330;2022-08-03T04:53:43;5.70;;;3.15;;
62997;SDS011;55949;52.590;7.330;2022-08-03T04:54:44;4.63;;;3.47;;
62997;SDS011;55949;52.590;7.330;2022-08-03T04:55:45;7.45;;;3.95;;
62997;SDS011;55949;52.590;7.330;2022-08-03T04:56:45;7.93;;;3.40;;
62997;SDS011;55949;52.590;7.330;2022-08-03T04:57:46;7.28;;;4.13;;
62997;SDS011;55949;52.590;7.330;2022-08-03T04:58:47;9.65;;;3.80;;
62997;SDS011;55949;52.590;7.330;2022-08-03T04:59:48;4.85;;;3.13;;
62997;SDS011;55949;52.590;7.330;2022-08-03T05:00:53;6.00;;;3.83;;
62997;SDS011;55949;52.590;7.330;2022-08-03T05:01:53;6.20;;;3.53;;
62997;SDS011;55949;52.590;7.330;2022-08-03T05:02:54;8.00;;;3.95;;
62997;SDS011;55949;52.590;7.330;2022-08-03T05:03:55;7.15;;;3.85;;
62997;SDS011;55949;52.590;7.330;2022-08-03T05:04:56;5.55;;;3.45;;
62997;SDS011;55949;52.590;7.330;2022-08-03T05:05:57;6.93;;;3.45;;
62997;SDS011;55949;52.590;7.330;2022-08-03T05:06:58;7.68;;;3.65;;
62997;SDS011;55949;52.590;7.330;2022-08-03T05:07:59;7.85;;;4.00;;
62997;SDS011;55949;52.590;7.330;2022-08-03T05:09:00;9.85;;;3.88;;
62997;SDS011;55949;52.590;7.330;2022-08-03T05:10:01;7.88;;;3.70;;
62997;SDS011;55949;52.590;7.330;2022-08-03T05:11:03;8.65;;;3.90;;
62997;SDS011;55949;52.590;7.330;2022-08-03T05:12:04;9.45;;;4.28;;
62997;SDS011;55949;52.590;7.330;2022-08-03T05:13:05;11.27;;;4.38;;
62997;SDS011;55949;52.590;7.330;2022-08-03T05:14:10;8.75;;;4.13;;
62997;SDS011;55949;52.590;7.330;2022-08-03T05:15:11;8.80;;;3.97;;
62997;SDS011;55949;52.590;7.330;2022-08-03T05:16:13;6.82;;;4.07;;
62997;SDS011;55949;52.590;7.330;2022-08-03T05:17:14;6.63;;;3.97;;
62997;SDS011;55949;52.590;7.330;2022-08-03T05:18:15;6.78;;;4.22;;
62997;SDS011;55949;52.590;7.330;2022-08-03T05:19:16;7.85;;;3.70;;
62997;SDS011;55949;52.590;7.330;2022-08-03T05:20:16;7.30;;;4.20;;
62997;SDS011;55949;52.590;7.330;2022-08-03T05:21:17;7.93;;;3.63;;
62997;SDS011;55949;52.590;7.330;2022-08-03T05:22:18;7.50;;;4.35;;
62997;SDS011;55949;52.590;7.330;2022-08-03T05:23:19;6.60;;;3.60;;
62997;SDS011;55949;52.590;7.330;2022-08-03T05:24:19;7.78;;;4.18;;
62997;SDS011;55949;52.590;7.330;2022-08-03T05:25:20;8.75;;;4.53;;
62997;SDS011;55949;52.590;7.330;2022-08-03T05:26:21;6.97;;;3.95;;
62997;SDS011;55949;52.590;7.330;2022-08-03T05:27:22;6.95;;;4.28;;
62997;SDS011;55949;52.590;7.330;2022-08-03T05:28:22;9.07;;;4.32;;
62997;SDS011;55949;52.590;7.330;2022-08-03T05:29:23;6.88;;;3.97;;
62997;SDS011;55949;52.590;7.330;2022-08-03T05:30:24;8.43;;;4.35;;
62997;SDS011;55949;52.590;7.330;2022-08-03T05:31:25;7.97;;;4.18;;
62997;SDS011;55949;52.590;7.330;2022-08-03T05:32:25;8.88;;;4.10;;
62997;SDS011;55949;52.590;7.330;2022-08-03T05:33:26;7.60;;;4.07;;
62997;SDS011;55949;52.590;7.330;2022-08-03T05:34:27;6.38;;;3.90;;
62997;SDS011;55949;52.590;7.330;2022-08-03T05:35:28;10.30;;;4.82;;
62997;SDS011;55949;52.590;7.330;2022-08-03T05:36:29;7.72;;;3.72;;
62997;SDS011;55949;52.590;7.330;2022-08-03T05:37:30;6.68;;;4.18;;
62997;SDS011;55949;52.590;7.330;2022-08-03T05:38:31;6.82;;;4.00;;
62997;SDS011;55949;52.590;7.330;2022-08-03T05:39:32;9.25;;;4.50;;
62997;SDS011;55949;52.590;7.330;2022-08-03T05:40:33;8.15;;;4.13;;
62997;SDS011;55949;52.590;7.330;2022-08-03T05:41:34;6.50;;;4.20;;
62997;SDS011;55949;52.590;7.330;2022-08-03T05:42:35;7.22;;;4.13;;
62997;SDS011;55949;52.590;7.330;2022-08-03T05:43:37;8.80;;;3.90;;
62997;SDS011;55949;52.590;7.330;2022-08-03T05:44:37;8.18;;;3.95;;
62997;SDS011;55949;52.590;7.330;2022-08-03T05:45:38;7.25;;;3.70;;
62997;SDS011;55949;52.590;7.330;2022-08-03T05:46:39;6.63;;;3.65;;
62997;SDS011;55949;52.590;7.330;2022-08-03T05:47:40;6.15;;;3.05;;
62997;SDS011;55949;52.590;7.330;2022-08-03T05:48:43;4.68;;;2.83;;
62997;SDS011;55949;52.590;7.330;2022-08-03T05:49:43;8.68;;;3.25;;
62997;SDS011;55949;52.590;7.330;2022-08-03T05:50:44;7.15;;;2.92;;
62997;SDS011;55949;52.590;7.330;2022-08-03T05:51:45;7.43;;;3.28;;
62997;SDS011;55949;52.590;7.330;2022-08-03T05:52:46;6.50;;;3.17;;
62997;SDS011;55949;52.590;7.330;2022-08-03T05:53:47;7.43;;;3.75;;
62997;SDS011;55949;52.590;7.330;2022-08-03T05:54:47;4.93;;;3.60;;
62997;SDS011;55949;52.590;7.330;2022-08-03T05:55:48;8.13;;;3.50;;
62997;SDS011;55949;52.590;7.330;2022-08-03T05:56:49;7.72;;;3.25;;
62997;SDS011;55949;52.590;7.330;2022-08-03T05:57:49;6.20;;;3.13;;
62997;SDS011;55949;52.590;7.330;2022-08-03T05:58:50;7.65;;;3.40;;
62997;SDS011;55949;52.590;7.330;2022-08-03T05:59:52;7.13;;;3.78;;
62997;SDS011;55949;52.590;7.330;2022-08-03T06:00:52;9.55;;;4.10;;
62997;SDS011;55949;52.590;7.330;2022-08-03T06:01:53;12.70;;;3.47;;
62997;SDS011;55949;52.590;7.330;2022-08-03T06:02:54;8.70;;;3.47;;
62997;SDS011;55949;52.590;7.330;2022-08-03T06:03:56;6.28;;;3.47;;
62997;SDS011;55949;52.590;7.330;2022-08-03T06:04:57;9.15;;;3.55;;
62997;SDS011;55949;52.590;7.330;2022-08-03T06:05:57;7.57;;;3.80;;
62997;SDS011;55949;52.590;7.330;2022-08-03T06:06:58;6.93;;;3.30;;
62997;SDS011;55949;52.590;7.330;2022-08-03T06:07:59;6.97;;;3.35;;
62997;SDS011;55949;52.590;7.330;2022-08-03T06:08:59;7.22;;;3.22;;
62997;SDS011;55949;52.590;7.330;2022-08-03T06:10:00;9.18;;;3.28;;
62997;SDS011;55949;52.590;7.330;2022-08-03T06:11:02;10.82;;;3.70;;
62997;SDS011;55949;52.590;7.330;2022-08-03T06:12:03;5.05;;;2.97;;
62997;SDS011;55949;52.590;7.330;2022-08-03T06:13:04;9.00;;;3.35;;
62997;SDS011;55949;52.590;7.330;2022-08-03T06:14:05;9.93;;;3.30;;
62997;SDS011;55949;52.590;7.330;2022-08-03T06:15:06;8.65;;;2.90;;
62997;SDS011;55949;52.590;7.330;2022-08-03T06:16:07;6.45;;;3.40;;
62997;SDS011;55949;52.590;7.330;2022-08-03T06:17:08;7.35;;;3.30;;
62997;SDS011;55949;52.590;7.330;2022-08-03T06:18:09;7.15;;;3.00;;
62997;SDS011;55949;52.590;7.330;2022-08-03T06:19:10;9.23;;;3.22;;
62997;SDS011;55949;52.590;7.330;2022-08-03T06:20:10;6.88;;;3.08;;
62997;SDS011;55949;52.590;7.330;2022-08-03T06:21:11;6.50;;;3.30;;
62997;SDS011;55949;52.590;7.330;2022-08-03T06:22:12;5.95;;;3.20;;
62997;SDS011;55949;52.590;7.330;2022-08-03T06:23:12;6.88;;;4.28;;
62997;SDS011;55949;52.590;7.330;2022-08-03T06:24:13;7.70;;;3.45;;
62997;SDS011;55949;52.590;7.330;2022-08-03T06:25:14;7.38;;;3.75;;
62997;SDS011;55949;52.590;7.330;2022-08-03T06:26:18;7.93;;;4.10;;
62997;SDS011;55949;52.590;7.330;2022-08-03T06:27:19;9.70;;;4.10;;
62997;SDS011;55949;52.590;7.330;2022-08-03T06:28:19;8.32;;;3.55;;
62997;SDS011;55949;52.590;7.330;2022-08-03T06:29:20;8.93;;;3.25;;
62997;SDS011;55949;52.590;7.330;2022-08-03T06:30:21;13.02;;;3.50;;
62997;SDS011;55949;52.590;7.330;2022-08-03T06:31:22;6.80;;;3.03;;
62997;SDS011;55949;52.590;7.330;2022-08-03T06:32:26;9.85;;;3.10;;
62997;SDS011;55949;52.590;7.330;2022-08-03T06:33:27;7.22;;;3.20;;
62997;SDS011;55949;52.590;7.330;2022-08-03T06:34:28;8.55;;;2.90;;
62997;SDS011;55949;52.590;7.330;2022-08-03T06:35:29;7.90;;;3.05;;
62997;SDS011;55949;52.590;7.330;2022-08-03T06:36:29;10.70;;;3.67;;
62997;SDS011;55949;52.590;7.330;2022-08-03T06:37:31;9.70;;;3.90;;